Time;durP1;ratioP1;P1;durP2;ratioP2;P2;SDS_P1;SDS_P2;PMS_P1;PMS_P2;Temp;Humidity;BMP_temperature;BMP_pressure;BME280_temperature;BME280_humidity;BME280_pressure;Samples;Min_cycle;Max_cycle;Signal;HPM_P1;HPM_P2
2023/03/14 00:02:17;;;;;;;3.55;2.25;;;;;;;21.14;49.12;100425.19;5054864;28;20063;-51
2023/03/14 00:04:45;;;;;;;4.30;2.35;;;;;;;21.13;48.97;100412.72;5054881;28;20514;-50
2023/03/14 00:07:12;;;;;;;5.88;2.58;;;;;;;21.13;48.98;100398.44;5053889;28;20048;-53
2023/03/14 00:09:40;;;;;;;4.57;2.47;;;;;;;21.13;48.97;100399.28;5055041;28;20057;-54
2023/03/14 00:12:08;;;;;;;4.03;2.60;;;;;;;21.12;48.92;100397.59;5054693;28;20055;-49
2023/03/14 00:14:35;;;;;;;4.43;2.30;;;;;;;21.13;48.89;100387.66;5054811;28;20041;-52
2023/03/14 00:17:03;;;;;;;4.13;2.47;;;;;;;21.12;48.92;100373.34;5054523;28;20407;-48
2023/03/14 00:19:30;;;;;;;5.15;2.33;;;;;;;21.11;49.04;100368.97;5054669;28;20044;-50
2023/03/14 00:21:57;;;;;;;4.70;2.95;;;;;;;21.11;48.91;100360.91;5054622;28;20049;-49
2023/03/14 00:24:25;;;;;;;4.20;2.60;;;;;;;21.11;48.81;100360.06;5054297;28;20060;-48
2023/03/14 00:26:52;;;;;;;3.60;2.33;;;;;;;21.12;48.80;100364.44;5054056;28;20068;-48
2023/03/14 00:29:19;;;;;;;3.60;2.15;;;;;;;21.10;48.62;100351.13;5053337;28;20048;-48
2023/03/14 00:31:46;;;;;;;5.28;2.53;;;;;;;21.11;48.74;100347.44;5053011;28;20079;-49
2023/03/14 00:34:14;;;;;;;4.38;2.67;;;;;;;21.11;48.66;100334.00;5054406;28;20112;-49
2023/03/14 00:36:41;;;;;;;5.05;2.60;;;;;;;21.10;48.56;100328.75;5054403;28;20037;-49
2023/03/14 00:39:08;;;;;;;7.88;3.03;;;;;;;21.09;48.55;100303.69;5054306;28;20052;-49
2023/03/14 00:41:35;;;;;;;4.07;2.40;;;;;;;21.08;48.60;100285.84;5052814;28;20064;-49
2023/03/14 00:44:03;;;;;;;4.30;2.50;;;;;;;21.10;48.68;100285.69;5052879;28;20060;-50
2023/03/14 00:46:30;;;;;;;6.75;2.53;;;;;;;21.09;48.54;100273.22;5052631;28;20056;-50
2023/03/14 00:48:58;;;;;;;3.90;2.50;;;;;;;21.09;48.58;100257.94;5053631;28;20061;-50
2023/03/14 00:51:25;;;;;;;4.22;2.88;;;;;;;21.08;48.44;100261.63;5053995;28;20048;-48
2023/03/14 00:53:52;;;;;;;4.40;2.85;;;;;;;21.08;48.55;100261.63;5054054;28;20049;-49
2023/03/14 00:56:20;;;;;;;5.57;2.72;;;;;;;21.08;48.62;100258.09;5053827;28;20049;-52
2023/03/14 00:58:47;;;;;;;5.80;3.10;;;;;;;21.08;48.45;100253.56;5052731;28;20045;-52
2023/03/14 01:01:18;;;;;;;5.13;2.80;;;;;;;21.08;48.61;100260.78;5053965;28;20049;-48
2023/03/14 01:03:46;;;;;;;4.45;2.25;;;;;;;21.08;48.64;100244.63;5052576;28;20060;-50
2023/03/14 01:06:17;;;;;;;5.32;2.33;;;;;;;21.07;48.55;100226.81;5052794;28;20056;-48
2023/03/14 01:08:45;;;;;;;5.22;2.55;;;;;;;21.07;48.59;100213.34;5053751;28;20052;-50
2023/03/14 01:11:17;;;;;;;4.85;2.67;;;;;;;21.06;48.60;100193.66;5052656;28;20049;-49
2023/03/14 01:13:44;;;;;;;4.07;2.53;;;;;;;21.06;48.69;100182.03;5052767;28;20045;-48
2023/03/14 01:16:13;;;;;;;4.18;2.95;;;;;;;21.06;48.69;100176.66;5053546;28;20037;-52
2023/03/14 01:18:43;;;;;;;4.15;2.58;;;;;;;21.06;48.46;100161.34;5052195;28;20048;-53
2023/03/14 01:21:17;;;;;;;5.10;2.72;;;;;;;21.05;48.55;100153.44;5068980;28;20072;-53
2023/03/14 01:23:46;;;;;;;4.88;2.53;;;;;;;21.05;48.51;100150.75;5051949;28;20515;-48
2023/03/14 01:26:18;;;;;;;7.53;2.42;;;;;;;21.05;48.64;100151.59;5051923;28;20060;-52
2023/03/14 01:28:47;;;;;;;3.77;2.20;;;;;;;21.05;48.41;100126.53;5053410;28;20048;-53
2023/03/14 01:31:15;;;;;;;3.72;2.65;;;;;;;21.04;48.59;100125.69;5052633;28;20757;-52
2023/03/14 01:33:43;;;;;;;5.15;2.53;;;;;;;21.05;48.47;100129.22;5052449;28;20052;-50
2023/03/14 01:36:11;;;;;;;3.65;2.38;;;;;;;21.05;48.47;100126.53;5053350;28;20067;-53
2023/03/14 01:38:40;;;;;;;4.80;2.53;;;;;;;21.04;48.47;100120.31;5068799;28;20392;-50
2023/03/14 01:41:15;;;;;;;5.03;2.58;;;;;;;21.05;48.46;100126.53;5052226;28;20056;-48
2023/03/14 01:43:44;;;;;;;4.35;2.83;;;;;;;21.05;48.65;100127.38;5052528;28;20494;-50
2023/03/14 01:46:33;;;;;;;3.90;2.40;;;;;;;21.04;48.51;100125.69;5053434;28;20053;-50
2023/03/14 01:49:07;;;;;;;4.97;2.47;;;;;;;21.04;48.56;100131.06;5052090;28;20053;-51
2023/03/14 01:52:00;;;;;;;4.45;2.55;;;;;;;21.05;48.55;100140.81;5068812;28;20052;-49
2023/03/14 01:54:30;;;;;;;4.57;2.95;;;;;;;21.06;48.61;100136.28;5051955;28;20041;-50
2023/03/14 01:57:08;;;;;;;5.30;2.83;;;;;;;21.05;48.68;100122.00;5052144;28;20053;-50
2023/03/14 01:59:38;;;;;;;4.15;2.67;;;;;;;21.04;48.54;100109.53;5051960;28;20396;-49
2023/03/14 02:02:09;;;;;;;2.97;2.22;;;;;;;21.04;48.56;100097.94;5051941;28;20399;-50
2023/03/14 02:04:39;;;;;;;4.53;2.53;;;;;;;21.05;48.52;100105.00;5068670;28;20068;-50
2023/03/14 02:07:22;;;;;;;5.30;2.60;;;;;;;21.03;48.50;100094.41;5051765;28;20045;-50
2023/03/14 02:10:03;;;;;;;4.43;2.20;;;;;;;21.03;48.52;100102.47;5051739;28;20067;-51
2023/03/14 02:12:32;;;;;;;4.47;2.50;;;;;;;21.02;48.52;100083.78;5052114;28;20049;-48
2023/03/14 02:15:39;;;;;;;4.55;2.70;;;;;;;21.03;48.53;100074.75;5051632;28;20518;-49
2023/03/14 02:18:19;;;;;;;4.57;2.25;;;;;;;21.03;48.64;100069.34;5050272;28;20053;-50
2023/03/14 02:21:14;;;;;;;3.15;2.28;;;;;;;21.02;48.60;100062.25;5044496;28;20478;-48
2023/03/14 02:24:02;;;;;;;3.42;2.03;;;;;;;21.01;48.62;100061.41;5052896;28;20057;-52
2023/03/14 02:26:38;;;;;;;4.47;2.55;;;;;;;21.02;48.53;100048.81;5052864;28;20061;-53
2023/03/14 02:29:06;;;;;;;3.88;2.30;;;;;;;21.01;48.39;100060.59;5051963;28;20511;-51
2023/03/14 02:31:34;;;;;;;3.42;2.10;;;;;;;21.01;48.62;100049.81;5055276;28;20410;-49
2023/03/14 02:34:02;;;;;;;4.70;3.00;;;;;;;21.01;48.45;100044.44;5055297;28;20049;-49
2023/03/14 02:36:30;;;;;;;4.82;2.67;;;;;;;21.01;48.51;100055.19;5057052;28;20053;-48
2023/03/14 02:39:08;;;;;;;5.60;2.50;;;;;;;21.00;48.39;100051.66;5055017;28;20053;-48
2023/03/14 02:41:39;;;;;;;3.20;1.95;;;;;;;20.99;48.53;100069.66;5054931;28;20059;-48
2023/03/14 02:44:07;;;;;;;3.30;2.08;;;;;;;21.00;48.53;100059.75;5056729;28;20525;-48
2023/03/14 02:46:34;;;;;;;3.13;1.98;;;;;;;20.99;48.47;100055.38;5055164;28;20377;-49
2023/03/14 02:49:07;;;;;;;4.95;2.38;;;;;;;20.99;48.66;100056.22;5055270;28;20053;-49
2023/03/14 02:51:35;;;;;;;5.03;2.03;;;;;;;20.99;48.57;100071.53;5055041;28;20388;-48
2023/03/14 02:54:03;;;;;;;4.18;2.33;;;;;;;20.99;48.56;100077.75;5055133;28;20053;-49
2023/03/14 02:56:31;;;;;;;4.20;2.50;;;;;;;20.99;48.53;100084.97;5055048;28;20403;-50
2023/03/14 02:59:05;;;;;;;3.22;2.30;;;;;;;20.98;48.46;100097.59;5071344;28;20053;-51
2023/03/14 03:01:39;;;;;;;4.28;2.70;;;;;;;20.99;48.46;100084.97;5054826;28;20049;-50
2023/03/14 03:04:07;;;;;;;5.47;2.42;;;;;;;20.98;48.61;100077.88;5054786;28;20052;-49
2023/03/14 03:06:35;;;;;;;4.00;2.03;;;;;;;20.99;48.53;100079.59;5071336;28;20049;-48
2023/03/14 03:09:02;;;;;;;4.57;2.22;;;;;;;20.98;48.41;100067.13;5056112;28;20052;-48
2023/03/14 03:11:31;;;;;;;3.78;2.40;;;;;;;20.98;48.57;100056.34;5055858;28;20044;-50
2023/03/14 03:13:58;;;;;;;3.33;2.03;;;;;;;20.98;48.61;100034.81;5056231;28;20057;-51
2023/03/14 03:16:28;;;;;;;3.72;2.70;;;;;;;20.98;48.52;100040.22;5054490;28;20048;-49
2023/03/14 03:18:55;;;;;;;4.22;2.35;;;;;;;20.98;48.59;100022.25;5054507;28;20045;-50
2023/03/14 03:21:23;;;;;;;3.78;2.17;;;;;;;20.98;48.53;100029.44;5055815;28;20045;-48
2023/03/14 03:23:50;;;;;;;4.07;2.50;;;;;;;20.99;48.52;100004.25;5055426;28;20053;-50
2023/03/14 03:26:18;;;;;;;3.53;1.90;;;;;;;20.97;48.48;99999.00;5056034;28;20048;-49
2023/03/14 03:28:45;;;;;;;4.60;2.33;;;;;;;20.97;48.42;100009.78;5055493;28;20048;-50
2023/03/14 03:31:14;;;;;;;6.55;2.65;;;;;;;20.98;48.54;99991.78;5054611;28;20064;-48
2023/03/14 03:33:42;;;;;;;3.88;2.30;;;;;;;20.98;48.39;99989.09;5055772;28;20056;-49
2023/03/14 03:36:10;;;;;;;3.28;2.00;;;;;;;20.97;48.56;99990.09;5054143;28;20053;-49
2023/03/14 03:38:39;;;;;;;3.30;1.92;;;;;;;20.97;48.49;99976.66;5053959;28;20053;-50
2023/03/14 03:41:07;;;;;;;3.53;2.22;;;;;;;20.97;48.52;99995.47;5055194;28;20048;-51
2023/03/14 03:43:35;;;;;;;4.32;2.30;;;;;;;20.97;48.63;99972.09;5054180;28;20045;-52
2023/03/14 03:46:06;;;;;;;4.63;2.25;;;;;;;20.97;48.41;99988.25;5054712;28;20068;-49
2023/03/14 03:48:35;;;;;;;4.90;2.63;;;;;;;20.97;48.52;100006.25;5053655;28;20053;-50
2023/03/14 03:51:05;;;;;;;3.88;2.22;;;;;;;20.97;48.43;100001.69;5054108;28;20057;-52
2023/03/14 03:53:33;;;;;;;4.63;2.10;;;;;;;20.98;48.52;100007.91;5053620;28;20048;-50
2023/03/14 03:56:12;;;;;;;5.28;2.53;;;;;;;20.97;48.51;100011.63;5054054;28;20501;-52
2023/03/14 03:58:41;;;;;;;4.50;2.45;;;;;;;20.96;48.66;100000.03;5053737;28;20049;-49
2023/03/14 04:01:10;;;;;;;3.95;2.13;;;;;;;20.96;48.68;99981.19;5053857;28;20057;-50
2023/03/14 04:03:38;;;;;;;3.97;2.20;;;;;;;20.97;48.54;99980.19;5037056;28;20060;-52
2023/03/14 04:06:12;;;;;;;5.97;2.78;;;;;;;20.96;48.71;99967.72;5053584;28;20496;-50
2023/03/14 04:08:43;;;;;;;3.75;2.28;;;;;;;20.97;48.63;99965.88;5053490;28;20052;-52
2023/03/14 04:11:20;;;;;;;3.95;2.40;;;;;;;20.97;48.65;99947.06;5053600;28;20529;-51
2023/03/14 04:14:13;;;;;;;3.53;2.10;;;;;;;20.96;48.75;99940.00;5054207;28;20061;-49
2023/03/14 04:16:41;;;;;;;3.58;2.47;;;;;;;20.96;48.72;99926.53;5053973;28;20487;-50
2023/03/14 04:19:12;;;;;;;5.03;2.45;;;;;;;20.95;48.63;99901.47;5053394;28;20052;-49
2023/03/14 04:21:44;;;;;;;4.95;2.78;;;;;;;20.95;48.74;99874.56;5053360;28;20049;-50
2023/03/14 04:24:12;;;;;;;6.25;2.80;;;;;;;20.95;48.53;99847.66;5054532;28;20053;-51
2023/03/14 04:26:42;;;;;;;5.82;2.75;;;;;;;20.94;48.66;99811.03;5053244;28;20419;-52
2023/03/14 04:29:10;;;;;;;4.45;3.05;;;;;;;20.94;48.58;99785.94;5053583;28;20056;-52
2023/03/14 04:31:40;;;;;;;3.40;2.60;;;;;;;20.94;48.72;99815.53;5053161;28;20475;-52
2023/03/14 04:34:08;;;;;;;3.88;2.58;;;;;;;20.93;48.78;99817.38;5053071;28;20403;-50
2023/03/14 04:36:41;;;;;;;4.75;3.00;;;;;;;20.94;48.75;99820.91;5053037;28;20053;-52
2023/03/14 04:39:13;;;;;;;4.75;2.28;;;;;;;20.94;48.90;99839.75;5053064;28;20060;-48
2023/03/14 04:41:50;;;;;;;5.30;2.80;;;;;;;20.94;48.93;99847.81;5053001;28;20617;-49
2023/03/14 04:44:18;;;;;;;5.80;3.00;;;;;;;20.94;48.91;99854.06;5053993;28;20060;-49
2023/03/14 04:46:49;;;;;;;4.93;3.38;;;;;;;20.94;48.79;99831.69;5052865;28;20053;-49
2023/03/14 04:49:16;;;;;;;4.20;2.80;;;;;;;20.94;48.84;99810.16;5052659;28;20053;-48
2023/03/14 04:51:44;;;;;;;6.25;3.75;;;;;;;20.93;48.75;99828.16;5051723;28;20053;-51
2023/03/14 04:54:12;;;;;;;5.15;3.05;;;;;;;20.93;48.78;99816.53;5053715;28;20052;-49
2023/03/14 04:56:39;;;;;;;5.50;3.85;;;;;;;20.93;48.82;99822.75;5052649;28;20056;-48
2023/03/14 04:59:08;;;;;;;5.95;3.60;;;;;;;20.93;48.80;99813.84;5052717;28;20045;-48
2023/03/14 05:01:36;;;;;;;6.63;4.22;;;;;;;20.92;48.83;99842.63;5052528;28;20052;-49
2023/03/14 05:04:20;;;;;;;6.90;3.83;;;;;;;20.93;48.88;99827.31;5053820;28;20060;-49
2023/03/14 05:06:56;;;;;;;6.57;3.97;;;;;;;20.92;48.90;99825.63;5052878;28;20049;-49
2023/03/14 05:09:48;;;;;;;7.18;3.60;;;;;;;20.91;48.80;99819.41;5052600;28;20056;-49
2023/03/14 05:12:51;;;;;;;6.70;4.32;;;;;;;20.92;48.88;99793.34;5032227;28;20053;-50
2023/03/14 05:15:38;;;;;;;8.90;4.45;;;;;;;20.92;48.86;99777.22;5052582;28;20049;-49
2023/03/14 05:18:24;;;;;;;6.75;4.72;;;;;;;20.91;48.91;99752.16;5060423;28;20068;-52
2023/03/14 05:21:17;;;;;;;7.85;5.20;;;;;;;20.92;48.84;99721.53;5045481;28;20053;-49
2023/03/14 05:24:05;;;;;;;8.18;5.45;;;;;;;20.92;48.84;99693.81;5053253;28;20064;-48
2023/03/14 05:26:50;;;;;;;8.65;5.55;;;;;;;20.91;48.74;99695.66;5060571;28;20502;-48
2023/03/14 05:29:35;;;;;;;6.53;4.95;;;;;;;20.91;48.84;99687.59;5052296;28;20053;-49
2023/03/14 05:32:38;;;;;;;6.07;4.88;;;;;;;20.91;48.86;99657.16;5052578;28;20053;-51
2023/03/14 05:35:24;;;;;;;8.23;6.35;;;;;;;20.90;48.79;99645.56;5060229;28;20426;-48
2023/03/14 05:38:18;;;;;;;8.13;6.03;;;;;;;20.90;48.67;99664.41;5053687;28;20049;-50
2023/03/14 05:40:59;;;;;;;8.48;5.47;;;;;;;20.91;48.83;99705.59;5052234;28;20053;-48
2023/03/14 05:43:45;;;;;;;8.13;5.45;;;;;;;20.90;48.71;99739.72;5052258;28;20414;-48
2023/03/14 05:46:29;;;;;;;9.05;5.53;;;;;;;20.91;48.68;99748.63;5052085;28;20049;-48
2023/03/14 05:49:34;;;;;;;6.82;5.63;;;;;;;20.90;48.59;99769.31;5053125;28;20398;-51
2023/03/14 05:52:18;;;;;;;;;;;;;;;20.91;48.79;99770.16;5053923;28;20044;-51
2023/03/14 05:54:53;;;;;;;9.02;6.35;;;;;;;20.90;48.66;99792.66;5053544;28;20367;-52
2023/03/14 05:57:46;;;;;;;7.22;5.47;;;;;;;20.90;48.83;99769.31;5052404;28;20056;-54
2023/03/14 06:00:39;;;;;;;8.18;6.00;;;;;;;20.89;48.57;99761.38;5043442;28;20057;-50
2023/03/14 06:03:19;;;;;;;8.65;5.47;;;;;;;20.89;48.72;99766.78;5053274;28;20064;-49
2023/03/14 06:05:50;;;;;;;10.32;5.78;;;;;;;20.88;48.65;99798.22;5055777;28;20053;-48
2023/03/14 06:08:20;;;;;;;8.35;5.53;;;;;;;20.89;48.74;99837.56;5055295;28;20072;-49
2023/03/14 06:10:47;;;;;;;8.40;6.63;;;;;;;20.88;48.46;99846.66;5055831;28;20384;-49
2023/03/14 06:13:15;;;;;;;7.78;5.07;;;;;;;20.89;48.70;99842.94;5055748;28;20487;-51
2023/03/14 06:15:43;;;;;;;8.70;6.20;;;;;;;20.88;48.62;99802.75;5055740;28;20049;-53
2023/03/14 06:18:12;;;;;;;8.45;5.72;;;;;;;20.88;48.76;99808.13;5055494;28;20075;-51
2023/03/14 06:20:40;;;;;;;7.30;5.82;;;;;;;20.88;48.72;99818.91;5055653;28;20053;-50
2023/03/14 06:23:10;;;;;;;7.10;5.72;;;;;;;20.87;48.65;99828.00;5055496;28;20056;-51
2023/03/14 06:25:38;;;;;;;9.07;5.80;;;;;;;20.88;48.57;99813.53;5056671;28;20055;-50
2023/03/14 06:28:05;;;;;;;6.82;5.18;;;;;;;20.87;48.82;99812.69;5056818;28;20048;-52
2023/03/14 06:30:32;;;;;;;7.18;5.22;;;;;;;20.87;48.86;99820.75;5055512;28;20052;-49
2023/03/14 06:33:00;;;;;;;8.60;5.40;;;;;;;20.87;48.87;99811.84;5055615;28;20049;-52
2023/03/14 06:35:28;;;;;;;7.55;5.85;;;;;;;20.87;48.97;99817.22;5055484;28;20053;-49
2023/03/14 06:37:56;;;;;;;6.88;5.47;;;;;;;20.87;48.78;99812.69;5056586;28;20049;-52
2023/03/14 06:40:23;;;;;;;8.23;5.50;;;;;;;20.87;48.99;99822.59;5055241;28;20057;-51
2023/03/14 06:43:03;;;;;;;7.28;5.35;;;;;;;20.87;48.97;99806.47;5055302;28;20045;-51
2023/03/14 06:45:32;;;;;;;7.75;5.00;;;;;;;20.87;48.94;99819.91;5055167;28;20049;-51
2023/03/14 06:48:02;;;;;;;7.50;5.03;;;;;;;20.86;49.05;99827.13;5055161;28;20049;-52
2023/03/14 06:50:39;;;;;;;7.40;5.07;;;;;;;20.87;48.97;99849.50;5055175;28;20487;-49
2023/03/14 06:53:08;;;;;;;6.70;5.15;;;;;;;20.87;48.92;99863.81;5055263;28;20053;-53
2023/03/14 06:55:39;;;;;;;8.45;5.07;;;;;;;20.87;48.80;99865.66;5055214;28;20053;-48
2023/03/14 06:58:07;;;;;;;6.50;4.78;;;;;;;20.87;48.90;99841.44;5054853;28;20499;-51
2023/03/14 07:00:41;;;;;;;7.55;5.63;;;;;;;20.87;48.85;99818.06;5055919;28;20036;-48
2023/03/14 07:03:10;;;;;;;7.13;5.38;;;;;;;20.88;48.88;99867.31;5054661;28;20057;-49
2023/03/14 07:05:41;;;;;;;7.00;4.82;;;;;;;20.88;48.95;99851.19;5054777;28;20056;-50
2023/03/14 07:08:09;;;;;;;6.10;4.95;;;;;;;20.88;48.89;99845.81;5056112;28;20075;-49
2023/03/14 07:10:36;;;;;;;8.68;5.13;;;;;;;20.87;49.07;99846.81;5055067;28;20518;-49
2023/03/14 07:13:06;;;;;;;8.10;5.40;;;;;;;20.86;49.11;99842.44;5071315;28;20487;-49
2023/03/14 07:15:39;;;;;;;;;;;;;;;20.87;49.04;99873.72;5054433;28;20045;-50
2023/03/14 07:18:09;;;;;;;7.68;5.00;;;;;;;20.86;49.08;99878.22;5054548;28;19921;-51
2023/03/14 07:20:36;;;;;;;7.53;5.50;;;;;;;20.86;49.07;99854.03;5054373;28;20064;-47
2023/03/14 07:23:04;;;;;;;7.10;5.38;;;;;;;20.87;49.14;99847.66;5054358;28;20048;-49
2023/03/14 07:25:39;;;;;;;6.28;4.80;;;;;;;20.87;49.30;99857.59;5071062;28;20057;-47
2023/03/14 07:28:07;;;;;;;8.82;5.18;;;;;;;20.87;49.10;99849.50;5054257;28;20049;-46
2023/03/14 07:30:36;;;;;;;7.10;5.05;;;;;;;20.88;49.28;99821.59;5054218;28;20052;-50
2023/03/14 07:33:10;;;;;;;9.50;5.30;;;;;;;20.87;49.37;99814.53;5054302;28;20519;-47
2023/03/14 07:35:38;;;;;;;7.43;5.25;;;;;;;20.87;49.27;99825.31;5054691;28;20075;-45
2023/03/14 07:38:06;;;;;;;10.90;6.05;;;;;;;20.87;49.19;99847.66;5054272;28;20052;-51
2023/03/14 07:40:38;;;;;;;9.40;6.95;;;;;;;20.87;47.37;99798.41;5054131;28;20045;-49
2023/03/14 07:43:06;;;;;;;10.05;5.60;;;;;;;20.87;48.28;99811.84;5054007;28;20064;-50
2023/03/14 07:45:47;;;;;;;7.97;4.90;;;;;;;20.86;49.05;99837.88;5054259;28;20053;-49
2023/03/14 07:48:17;;;;;;;7.82;4.75;;;;;;;20.86;49.01;99828.97;5055329;28;20356;-49
2023/03/14 07:50:48;;;;;;;8.43;5.60;;;;;;;20.86;49.09;99837.03;5055222;28;20464;-50
2023/03/14 07:53:16;;;;;;;9.63;5.45;;;;;;;20.87;49.13;99844.13;5055216;28;20056;-48
2023/03/14 07:55:43;;;;;;;7.45;4.63;;;;;;;20.86;49.06;99837.88;5055163;28;20479;-53
2023/03/14 07:58:11;;;;;;;8.02;5.10;;;;;;;20.87;49.22;99818.06;5055275;28;20392;-50
2023/03/14 08:00:39;;;;;;;8.48;5.10;;;;;;;20.87;49.18;99810.00;5054858;28;20051;-50
2023/03/14 08:03:06;;;;;;;8.10;6.35;;;;;;;20.87;49.09;99812.69;5055021;28;20049;-52
2023/03/14 08:05:38;;;;;;;13.65;12.02;;;;;;;20.80;47.24;99822.41;5054442;28;20052;-48
2023/03/14 08:08:05;;;;;;;11.45;9.63;;;;;;;20.67;47.96;99814.00;5063855;28;20056;-49
2023/03/14 08:10:33;;;;;;;12.48;10.05;;;;;;;20.59;48.32;99814.81;5074685;28;20040;-49
2023/03/14 08:13:01;;;;;;;13.88;10.90;;;;;;;20.52;48.16;99803.03;5074453;28;20380;-49
2023/03/14 08:15:29;;;;;;;12.93;10.95;;;;;;;20.44;48.37;99801.13;5074525;28;20040;-49
2023/03/14 08:17:57;;;;;;;14.30;12.35;;;;;;;20.35;47.97;99795.91;5074403;28;20044;-48
2023/03/14 08:20:27;;;;;;;16.33;11.82;;;;;;;20.26;48.49;99797.72;5074142;28;20049;-50
2023/03/14 08:22:59;;;;;;;15.55;11.25;;;;;;;20.20;48.72;99793.84;5074399;28;20075;-50
2023/03/14 08:25:28;;;;;;;12.30;10.88;;;;;;;20.16;48.95;99808.59;5073933;28;20486;-55
2023/03/14 08:27:56;;;;;;;12.63;11.27;;;;;;;20.15;49.05;99812.28;5072877;28;20056;-47
2023/03/14 08:30:23;;;;;;;14.02;11.27;;;;;;;20.10;48.97;99803.06;5072582;28;20503;-47
2023/03/14 08:32:51;;;;;;;11.88;10.68;;;;;;;20.04;49.18;99792.94;5074078;28;20044;-51
2023/03/14 08:35:19;;;;;;;13.20;11.90;;;;;;;19.97;49.53;99773.91;5073564;28;20495;-49
2023/03/14 08:37:46;;;;;;;12.45;10.85;;;;;;;19.92;49.20;99774.41;5073507;28;20040;-49
2023/03/14 08:40:15;;;;;;;12.18;10.18;;;;;;;19.89;49.61;99772.06;5073439;28;20052;-49
2023/03/14 08:42:42;;;;;;;11.93;10.18;;;;;;;19.93;49.64;99769.88;5073424;28;20055;-51
2023/03/14 08:45:12;;;;;;;13.93;11.02;;;;;;;19.96;49.41;99759.66;5073719;28;20048;-53
2023/03/14 08:47:40;;;;;;;11.65;10.27;;;;;;;19.98;49.25;99771.09;5073605;28;20053;-51
2023/03/14 08:50:09;;;;;;;14.75;10.27;;;;;;;20.02;49.30;99776.16;5073755;28;20040;-50
2023/03/14 08:52:37;;;;;;;18.70;13.88;;;;;;;20.05;49.30;99775.81;5073299;28;20048;-49
2023/03/14 08:55:05;;;;;;;20.52;14.63;;;;;;;20.09;49.11;99769.94;5073492;28;20045;-53
2023/03/14 08:57:33;;;;;;;21.05;14.70;;;;;;;20.08;49.42;99759.38;5073530;28;20514;-54
2023/03/14 09:00:00;;;;;;;18.45;14.23;;;;;;;20.07;49.49;99766.59;5073703;28;20506;-55
2023/03/14 09:02:28;;;;;;;23.15;13.93;;;;;;;20.09;49.71;99764.56;5073131;28;20505;-54
2023/03/14 09:04:55;;;;;;;15.45;12.68;;;;;;;20.12;49.53;99780.38;5073801;28;20438;-54
2023/03/14 09:07:23;;;;;;;13.85;11.90;;;;;;;20.14;49.83;99773.00;5073869;28;20482;-56
2023/03/14 09:09:50;;;;;;;11.70;10.13;;;;;;;20.16;50.08;99773.66;5072438;28;20040;-54
2023/03/14 09:12:17;;;;;;;14.48;10.07;;;;;;;20.18;49.93;99777.03;5073593;28;20049;-56
2023/03/14 09:14:44;;;;;;;10.90;8.18;;;;;;;20.19;50.02;99776.03;5073686;28;20071;-56
2023/03/14 09:17:12;;;;;;;10.68;8.13;;;;;;;20.18;49.84;99774.34;5073342;28;20044;-49
2023/03/14 09:19:39;;;;;;;11.77;7.28;;;;;;;20.25;49.62;99785.28;5073087;28;20513;-47
2023/03/14 09:22:06;;;;;;;9.80;7.15;;;;;;;20.31;49.63;99778.44;5073385;28;20055;-49
2023/03/14 09:24:34;;;;;;;10.75;7.20;;;;;;;20.36;49.74;99773.38;5073089;28;20414;-49
2023/03/14 09:27:01;;;;;;;11.43;6.45;;;;;;;20.42;49.57;99759.31;5073299;28;20501;-47
2023/03/14 09:29:29;;;;;;;10.93;6.35;;;;;;;20.45;49.41;99762.47;5073441;28;20044;-50
2023/03/14 09:31:58;;;;;;;12.50;6.20;;;;;;;20.51;49.46;99768.25;5073555;28;20071;-47
2023/03/14 09:34:26;;;;;;;11.35;6.63;;;;;;;20.54;49.56;99763.41;5073508;28;20044;-49
2023/03/14 09:36:53;;;;;;;9.70;6.40;;;;;;;20.57;49.32;99756.81;5073523;28;20044;-48
2023/03/14 09:39:20;;;;;;;9.73;4.78;;;;;;;20.59;49.25;99754.81;5078486;28;20045;-51
2023/03/14 09:41:54;;;;;;;8.52;4.90;;;;;;;20.61;49.25;99760.88;5079501;28;20048;-48
2023/03/14 09:44:29;;;;;;;9.57;5.70;;;;;;;20.63;49.21;99753.50;5079581;28;20040;-48
2023/03/14 09:47:02;;;;;;;7.65;5.05;;;;;;;20.63;49.07;99743.56;5079951;28;20052;-47
2023/03/14 09:49:33;;;;;;;10.55;5.38;;;;;;;20.64;49.07;99741.72;5079930;28;20047;-50
2023/03/14 09:52:12;;;;;;;8.93;5.03;;;;;;;20.65;49.08;99744.22;5079790;28;20036;-46
2023/03/14 09:54:56;;;;;;;7.53;4.40;;;;;;;20.66;49.21;99743.25;5079943;28;20048;-49
2023/03/14 09:57:25;;;;;;;7.65;4.65;;;;;;;20.67;49.07;99747.59;5079478;28;20045;-48
2023/03/14 10:00:07;;;;;;;6.57;3.97;;;;;;;20.69;48.95;99742.88;5079669;28;20051;-52
2023/03/14 10:02:36;;;;;;;14.55;4.93;;;;;;;20.68;49.03;99743.06;5079741;28;20051;-50
2023/03/14 10:05:08;;;;;;;6.00;3.92;;;;;;;20.70;49.15;99741.91;5079657;28;20380;-47
2023/03/14 10:07:35;;;;;;;8.60;4.33;;;;;;;20.72;49.09;99739.88;5079653;28;20589;-47
2023/03/14 10:10:10;;;;;;;7.35;3.70;;;;;;;20.73;48.94;99740.72;5079572;28;20414;-49
2023/03/14 10:12:41;;;;;;;5.80;3.97;;;;;;;20.73;49.19;99735.31;5079617;28;20052;-47
2023/03/14 10:15:14;;;;;;;8.98;4.63;;;;;;;20.73;48.92;99740.72;5079647;28;20059;-52
2023/03/14 10:17:49;;;;;;;8.23;4.22;;;;;;;20.73;49.11;99729.94;5079427;28;20390;-50
2023/03/14 10:20:33;;;;;;;7.03;4.43;;;;;;;20.74;48.90;99737.00;5079491;28;20049;-50
2023/03/14 10:23:04;;;;;;;6.80;3.75;;;;;;;20.73;49.10;99732.63;5079656;28;20044;-48
2023/03/14 10:25:34;;;;;;;8.07;4.20;;;;;;;20.75;48.93;99736.00;5078970;28;20056;-48
2023/03/14 10:28:03;;;;;;;8.88;3.97;;;;;;;20.76;49.13;99731.47;5079229;28;20471;-48
2023/03/14 10:30:38;;;;;;;6.82;3.75;;;;;;;20.76;49.13;99729.63;5079462;28;20391;-52
2023/03/14 10:33:18;;;;;;;5.55;3.78;;;;;;;20.77;48.95;99728.59;5079551;28;20059;-52
2023/03/14 10:35:52;;;;;;;7.63;4.30;;;;;;;20.78;48.97;99727.59;5079549;28;20044;-49
2023/03/14 10:38:19;;;;;;;8.07;4.00;;;;;;;20.79;48.98;99723.06;5079324;28;20055;-48
2023/03/14 10:40:49;;;;;;;8.27;4.00;;;;;;;20.80;48.96;99716.69;5079250;28;20037;-47
2023/03/14 10:43:24;;;;;;;6.03;3.72;;;;;;;20.79;48.95;99713.16;5079459;28;20067;-49
2023/03/14 10:45:57;;;;;;;5.03;3.42;;;;;;;20.80;49.00;99714.00;5079692;28;20059;-49
2023/03/14 10:48:25;;;;;;;6.97;3.58;;;;;;;20.80;48.94;99719.38;5079301;28;20360;-50
2023/03/14 10:50:56;;;;;;;6.53;3.92;;;;;;;20.80;48.85;99719.38;5075608;28;20036;-50
2023/03/14 10:53:24;;;;;;;6.60;3.70;;;;;;;20.82;49.19;99722.72;5074014;28;20041;-53
2023/03/14 10:55:55;;;;;;;8.38;3.55;;;;;;;20.84;49.23;99715.34;5076012;28;20379;-54
2023/03/14 10:58:28;;;;;;;8.13;3.65;;;;;;;20.86;49.08;99724.91;5075338;28;20048;-49
2023/03/14 11:01:26;;;;;;;6.97;3.92;;;;;;;20.87;49.09;99726.59;5076038;28;20415;-52
2023/03/14 11:04:25;;;;;;;6.63;3.33;;;;;;;20.89;49.01;99710.28;5075884;28;20507;-48
2023/03/14 11:06:53;;;;;;;7.18;3.30;;;;;;;20.90;48.95;99701.19;5074976;28;20063;-50
2023/03/14 11:09:32;;;;;;;5.90;3.33;;;;;;;20.90;49.00;99696.69;5075841;28;20068;-49
2023/03/14 11:12:25;;;;;;;4.65;3.55;;;;;;;20.91;48.94;99708.28;5075828;28;20052;-49
2023/03/14 11:14:57;;;;;;;;;;;;;;;20.91;49.01;99701.03;5075299;28;20057;-52
2023/03/14 11:17:34;;;;;;;6.75;3.28;;;;;;;20.92;49.03;99701.88;5075691;28;19924;-51
2023/03/14 11:20:22;;;;;;;6.88;3.83;;;;;;;20.93;49.05;99703.56;5075611;28;20041;-53
2023/03/14 11:23:03;;;;;;;5.45;3.50;;;;;;;20.93;49.05;99706.25;5074129;28;20055;-55
2023/03/14 11:25:40;;;;;;;6.85;3.28;;;;;;;20.94;49.01;99702.53;5075378;28;20049;-49
2023/03/14 11:28:25;;;;;;;8.80;3.42;;;;;;;20.94;49.02;99694.47;5075217;28;20048;-49
2023/03/14 11:30:55;;;;;;;7.50;3.00;;;;;;;20.96;49.11;99681.69;5075416;28;20044;-52
2023/03/14 11:34:04;;;;;;;5.30;2.70;;;;;;;20.96;48.98;99679.00;5074067;28;20055;-53
2023/03/14 11:36:41;;;;;;;7.88;3.20;;;;;;;20.97;48.99;99678.00;5075397;28;20048;-53
2023/03/14 11:39:14;;;;;;;4.60;3.10;;;;;;;20.97;49.01;99668.06;5075429;28;20048;-52
2023/03/14 11:41:48;;;;;;;5.20;2.85;;;;;;;20.98;48.94;99669.75;5075090;28;20043;-50
2023/03/14 11:44:24;;;;;;;3.90;2.60;;;;;;;20.98;48.95;99661.69;5075404;28;20048;-50
2023/03/14 11:47:00;;;;;;;5.07;2.58;;;;;;;20.99;48.94;99654.44;5075033;28;20049;-49
2023/03/14 11:49:32;;;;;;;5.85;2.70;;;;;;;21.00;48.79;99642.69;5075058;28;20055;-55
2023/03/14 11:52:05;;;;;;;5.07;3.07;;;;;;;21.01;48.95;99651.59;5075095;28;20103;-50
2023/03/14 11:54:38;;;;;;;4.13;2.75;;;;;;;21.01;49.21;99657.78;5074967;28;20044;-53